sensor_id;sensor_type;location;lat;lon;timestamp;P1;durP1;ratioP1;P2;durP2;ratioP2
78406;SDS011;67692;51.074;-1.790;2023-12-22T00:01:53;9.02;;;1.50;;
78406;SDS011;67692;51.074;-1.790;2023-12-22T00:04:20;6.80;;;1.38;;
78406;SDS011;67692;51.074;-1.790;2023-12-22T00:06:48;6.05;;;1.60;;
78406;SDS011;67692;51.074;-1.790;2023-12-22T00:09:17;6.03;;;1.08;;
78406;SDS011;67692;51.074;-1.790;2023-12-22T00:11:43;9.70;;;1.20;;
78406;SDS011;67692;51.074;-1.790;2023-12-22T00:14:10;11.98;;;1.30;;
78406;SDS011;67692;51.074;-1.790;2023-12-22T00:16:37;5.68;;;0.70;;
78406;SDS011;67692;51.074;-1.790;2023-12-22T00:19:04;3.45;;;0.73;;
78406;SDS011;67692;51.074;-1.790;2023-12-22T00:21:30;6.45;;;0.80;;
78406;SDS011;67692;51.074;-1.790;2023-12-22T00:23:59;7.10;;;1.10;;
78406;SDS011;67692;51.074;-1.790;2023-12-22T00:26:25;8.63;;;1.10;;
78406;SDS011;67692;51.074;-1.790;2023-12-22T00:28:52;6.85;;;1.23;;
78406;SDS011;67692;51.074;-1.790;2023-12-22T00:31:19;6.25;;;1.05;;
78406;SDS011;67692;51.074;-1.790;2023-12-22T00:33:45;9.45;;;0.93;;
78406;SDS011;67692;51.074;-1.790;2023-12-22T00:36:12;3.60;;;0.80;;
78406;SDS011;67692;51.074;-1.790;2023-12-22T00:38:39;6.43;;;1.25;;
78406;SDS011;67692;51.074;-1.790;2023-12-22T00:41:07;3.97;;;0.73;;
78406;SDS011;67692;51.074;-1.790;2023-12-22T00:43:33;4.25;;;0.80;;
78406;SDS011;67692;51.074;-1.790;2023-12-22T00:46:00;8.98;;;1.30;;
78406;SDS011;67692;51.074;-1.790;2023-12-22T00:48:27;6.68;;;1.08;;
78406;SDS011;67692;51.074;-1.790;2023-12-22T00:50:53;6.75;;;1.00;;
78406;SDS011;67692;51.074;-1.790;2023-12-22T00:53:20;12.73;;;1.60;;
78406;SDS011;67692;51.074;-1.790;2023-12-22T00:55:46;9.82;;;1.13;;
78406;SDS011;67692;51.074;-1.790;2023-12-22T00:58:14;6.18;;;1.25;;
78406;SDS011;67692;51.074;-1.790;2023-12-22T01:00:41;10.15;;;1.80;;
78406;SDS011;67692;51.074;-1.790;2023-12-22T01:03:08;8.35;;;1.45;;
78406;SDS011;67692;51.074;-1.790;2023-12-22T01:05:36;8.38;;;1.35;;
78406;SDS011;67692;51.074;-1.790;2023-12-22T01:08:03;7.57;;;1.30;;
78406;SDS011;67692;51.074;-1.790;2023-12-22T01:10:30;8.43;;;1.00;;
78406;SDS011;67692;51.074;-1.790;2023-12-22T01:12:57;3.88;;;0.90;;
78406;SDS011;67692;51.074;-1.790;2023-12-22T01:15:25;5.03;;;0.90;;
78406;SDS011;67692;51.074;-1.790;2023-12-22T01:17:52;7.28;;;1.10;;
78406;SDS011;67692;51.074;-1.790;2023-12-22T01:20:18;9.02;;;1.20;;
78406;SDS011;67692;51.074;-1.790;2023-12-22T01:22:45;6.13;;;1.23;;
78406;SDS011;67692;51.074;-1.790;2023-12-22T01:25:11;9.50;;;1.27;;
78406;SDS011;67692;51.074;-1.790;2023-12-22T01:27:38;7.22;;;1.35;;
78406;SDS011;67692;51.074;-1.790;2023-12-22T01:30:05;6.40;;;1.02;;
78406;SDS011;67692;51.074;-1.790;2023-12-22T01:32:35;6.55;;;1.13;;
78406;SDS011;67692;51.074;-1.790;2023-12-22T01:35:02;8.50;;;1.52;;
78406;SDS011;67692;51.074;-1.790;2023-12-22T01:39:58;7.30;;;1.00;;
78406;SDS011;67692;51.074;-1.790;2023-12-22T01:42:25;6.00;;;0.73;;
78406;SDS011;67692;51.074;-1.790;2023-12-22T01:44:51;7.30;;;0.85;;
78406;SDS011;67692;51.074;-1.790;2023-12-22T01:47:18;8.82;;;1.10;;
78406;SDS011;67692;51.074;-1.790;2023-12-22T01:49:46;5.35;;;0.57;;
78406;SDS011;67692;51.074;-1.790;2023-12-22T01:52:13;6.07;;;1.10;;
78406;SDS011;67692;51.074;-1.790;2023-12-22T01:54:40;5.35;;;0.68;;
78406;SDS011;67692;51.074;-1.790;2023-12-22T01:57:07;5.45;;;0.70;;
78406;SDS011;67692;51.074;-1.790;2023-12-22T01:59:35;7.85;;;0.90;;
78406;SDS011;67692;51.074;-1.790;2023-12-22T02:02:02;12.60;;;1.30;;
78406;SDS011;67692;51.074;-1.790;2023-12-22T02:04:29;4.57;;;0.63;;
78406;SDS011;67692;51.074;-1.790;2023-12-22T02:06:59;6.75;;;0.82;;
78406;SDS011;67692;51.074;-1.790;2023-12-22T02:09:28;5.70;;;0.82;;
78406;SDS011;67692;51.074;-1.790;2023-12-22T02:11:55;6.28;;;1.15;;
78406;SDS011;67692;51.074;-1.790;2023-12-22T02:14:22;7.43;;;0.98;;
78406;SDS011;67692;51.074;-1.790;2023-12-22T02:16:50;8.25;;;0.90;;
78406;SDS011;67692;51.074;-1.790;2023-12-22T02:19:23;8.75;;;1.10;;
78406;SDS011;67692;51.074;-1.790;2023-12-22T02:22:09;9.63;;;1.00;;
78406;SDS011;67692;51.074;-1.790;2023-12-22T02:24:39;7.57;;;0.85;;
78406;SDS011;67692;51.074;-1.790;2023-12-22T02:27:10;6.20;;;1.40;;
78406;SDS011;67692;51.074;-1.790;2023-12-22T02:29:45;11.73;;;1.00;;
78406;SDS011;67692;51.074;-1.790;2023-12-22T02:32:16;4.00;;;0.93;;
78406;SDS011;67692;51.074;-1.790;2023-12-22T02:34:48;4.95;;;0.70;;
78406;SDS011;67692;51.074;-1.790;2023-12-22T02:37:17;5.78;;;0.98;;
78406;SDS011;67692;51.074;-1.790;2023-12-22T02:39:46;5.40;;;0.90;;
78406;SDS011;67692;51.074;-1.790;2023-12-22T02:42:13;7.88;;;1.08;;
78406;SDS011;67692;51.074;-1.790;2023-12-22T02:44:41;7.30;;;0.93;;
78406;SDS011;67692;51.074;-1.790;2023-12-22T02:47:07;5.72;;;0.77;;
78406;SDS011;67692;51.074;-1.790;2023-12-22T02:49:34;4.68;;;0.90;;
78406;SDS011;67692;51.074;-1.790;2023-12-22T02:52:00;8.65;;;1.13;;
78406;SDS011;67692;51.074;-1.790;2023-12-22T02:54:27;5.90;;;0.85;;
78406;SDS011;67692;51.074;-1.790;2023-12-22T02:56:58;3.72;;;0.95;;
78406;SDS011;67692;51.074;-1.790;2023-12-22T02:59:25;7.18;;;1.08;;
78406;SDS011;67692;51.074;-1.790;2023-12-22T03:01:52;4.68;;;0.90;;
78406;SDS011;67692;51.074;-1.790;2023-12-22T03:04:19;7.38;;;1.10;;
78406;SDS011;67692;51.074;-1.790;2023-12-22T03:06:45;4.00;;;1.00;;
78406;SDS011;67692;51.074;-1.790;2023-12-22T03:09:12;8.63;;;1.10;;
78406;SDS011;67692;51.074;-1.790;2023-12-22T03:11:39;9.00;;;1.27;;
78406;SDS011;67692;51.074;-1.790;2023-12-22T03:14:07;3.42;;;0.90;;
78406;SDS011;67692;51.074;-1.790;2023-12-22T03:16:33;5.88;;;1.02;;
78406;SDS011;67692;51.074;-1.790;2023-12-22T03:19:00;4.10;;;0.88;;
78406;SDS011;67692;51.074;-1.790;2023-12-22T03:21:26;7.45;;;1.08;;
78406;SDS011;67692;51.074;-1.790;2023-12-22T03:23:53;5.15;;;0.80;;
78406;SDS011;67692;51.074;-1.790;2023-12-22T03:26:20;7.25;;;0.85;;
78406;SDS011;67692;51.074;-1.790;2023-12-22T03:28:46;4.88;;;1.25;;
78406;SDS011;67692;51.074;-1.790;2023-12-22T03:31:14;5.97;;;1.00;;
78406;SDS011;67692;51.074;-1.790;2023-12-22T03:33:41;5.65;;;0.55;;
78406;SDS011;67692;51.074;-1.790;2023-12-22T03:36:07;7.10;;;0.80;;
78406;SDS011;67692;51.074;-1.790;2023-12-22T03:38:34;5.40;;;1.35;;
78406;SDS011;67692;51.074;-1.790;2023-12-22T03:41:01;3.08;;;0.50;;
78406;SDS011;67692;51.074;-1.790;2023-12-22T03:43:27;5.03;;;0.93;;
78406;SDS011;67692;51.074;-1.790;2023-12-22T03:45:55;3.70;;;0.88;;
78406;SDS011;67692;51.074;-1.790;2023-12-22T03:48:23;4.22;;;0.70;;
78406;SDS011;67692;51.074;-1.790;2023-12-22T03:50:49;6.28;;;0.75;;
78406;SDS011;67692;51.074;-1.790;2023-12-22T03:53:16;4.93;;;0.80;;
78406;SDS011;67692;51.074;-1.790;2023-12-22T03:55:42;2.58;;;0.63;;
78406;SDS011;67692;51.074;-1.790;2023-12-22T03:58:09;7.53;;;1.33;;
78406;SDS011;67692;51.074;-1.790;2023-12-22T04:00:36;3.58;;;0.60;;
78406;SDS011;67692;51.074;-1.790;2023-12-22T04:03:02;4.32;;;0.63;;
78406;SDS011;67692;51.074;-1.790;2023-12-22T04:05:31;6.28;;;0.90;;
78406;SDS011;67692;51.074;-1.790;2023-12-22T04:07:57;9.70;;;1.15;;
78406;SDS011;67692;51.074;-1.790;2023-12-22T04:10:24;4.60;;;0.90;;
78406;SDS011;67692;51.074;-1.790;2023-12-22T04:12:51;2.85;;;0.73;;
78406;SDS011;67692;51.074;-1.790;2023-12-22T04:15:17;7.47;;;0.77;;
78406;SDS011;67692;51.074;-1.790;2023-12-22T04:17:44;6.97;;;1.23;;
78406;SDS011;67692;51.074;-1.790;2023-12-22T04:20:11;3.05;;;0.88;;
78406;SDS011;67692;51.074;-1.790;2023-12-22T04:22:39;6.10;;;0.93;;
78406;SDS011;67692;51.074;-1.790;2023-12-22T04:25:07;4.72;;;1.17;;
78406;SDS011;67692;51.074;-1.790;2023-12-22T04:27:34;5.55;;;0.63;;
78406;SDS011;67692;51.074;-1.790;2023-12-22T04:30:01;7.80;;;0.90;;
78406;SDS011;67692;51.074;-1.790;2023-12-22T04:32:27;8.65;;;1.05;;
78406;SDS011;67692;51.074;-1.790;2023-12-22T04:34:54;6.47;;;0.90;;
78406;SDS011;67692;51.074;-1.790;2023-12-22T04:37:21;8.10;;;1.23;;
78406;SDS011;67692;51.074;-1.790;2023-12-22T04:39:50;4.60;;;0.60;;
78406;SDS011;67692;51.074;-1.790;2023-12-22T04:42:17;10.50;;;1.00;;
78406;SDS011;67692;51.074;-1.790;2023-12-22T04:44:44;7.43;;;1.42;;
78406;SDS011;67692;51.074;-1.790;2023-12-22T04:47:11;10.48;;;1.10;;
78406;SDS011;67692;51.074;-1.790;2023-12-22T04:49:38;5.75;;;0.70;;
78406;SDS011;67692;51.074;-1.790;2023-12-22T04:52:05;10.80;;;0.93;;
78406;SDS011;67692;51.074;-1.790;2023-12-22T04:54:31;12.63;;;1.13;;
78406;SDS011;67692;51.074;-1.790;2023-12-22T04:56:59;8.90;;;1.23;;
78406;SDS011;67692;51.074;-1.790;2023-12-22T04:59:26;8.15;;;1.00;;
78406;SDS011;67692;51.074;-1.790;2023-12-22T05:01:53;9.90;;;1.40;;
78406;SDS011;67692;51.074;-1.790;2023-12-22T05:04:19;7.57;;;1.33;;
78406;SDS011;67692;51.074;-1.790;2023-12-22T05:06:46;11.30;;;1.30;;
78406;SDS011;67692;51.074;-1.790;2023-12-22T05:09:13;12.93;;;1.63;;
78406;SDS011;67692;51.074;-1.790;2023-12-22T05:11:40;4.95;;;0.55;;
78406;SDS011;67692;51.074;-1.790;2023-12-22T05:14:08;4.03;;;1.00;;
78406;SDS011;67692;51.074;-1.790;2023-12-22T05:16:35;5.07;;;1.10;;
78406;SDS011;67692;51.074;-1.790;2023-12-22T05:19:02;6.75;;;1.02;;
78406;SDS011;67692;51.074;-1.790;2023-12-22T05:21:29;6.38;;;1.00;;
78406;SDS011;67692;51.074;-1.790;2023-12-22T05:23:55;4.47;;;0.70;;
78406;SDS011;67692;51.074;-1.790;2023-12-22T05:26:22;6.07;;;1.00;;
78406;SDS011;67692;51.074;-1.790;2023-12-22T05:28:49;5.78;;;0.90;;
78406;SDS011;67692;51.074;-1.790;2023-12-22T05:31:17;2.78;;;0.50;;
78406;SDS011;67692;51.074;-1.790;2023-12-22T05:33:44;7.55;;;1.10;;
78406;SDS011;67692;51.074;-1.790;2023-12-22T05:36:11;6.47;;;0.95;;
78406;SDS011;67692;51.074;-1.790;2023-12-22T05:38:37;9.07;;;0.70;;
78406;SDS011;67692;51.074;-1.790;2023-12-22T05:41:04;8.15;;;0.75;;
78406;SDS011;67692;51.074;-1.790;2023-12-22T05:43:31;7.90;;;0.90;;
78406;SDS011;67692;51.074;-1.790;2023-12-22T05:45:58;4.00;;;1.10;;
78406;SDS011;67692;51.074;-1.790;2023-12-22T05:48:26;5.70;;;0.80;;
78406;SDS011;67692;51.074;-1.790;2023-12-22T05:50:53;9.13;;;1.17;;
78406;SDS011;67692;51.074;-1.790;2023-12-22T05:53:22;4.07;;;0.80;;
78406;SDS011;67692;51.074;-1.790;2023-12-22T05:55:48;6.47;;;1.00;;
78406;SDS011;67692;51.074;-1.790;2023-12-22T05:58:15;10.63;;;1.08;;
78406;SDS011;67692;51.074;-1.790;2023-12-22T06:00:41;6.07;;;1.33;;
78406;SDS011;67692;51.074;-1.790;2023-12-22T06:03:08;8.00;;;1.05;;
78406;SDS011;67692;51.074;-1.790;2023-12-22T06:05:36;6.57;;;1.52;;
78406;SDS011;67692;51.074;-1.790;2023-12-22T06:08:03;8.38;;;0.85;;
78406;SDS011;67692;51.074;-1.790;2023-12-22T06:10:30;5.45;;;0.95;;
78406;SDS011;67692;51.074;-1.790;2023-12-22T06:12:57;10.18;;;1.45;;
78406;SDS011;67692;51.074;-1.790;2023-12-22T06:15:26;8.82;;;1.13;;
78406;SDS011;67692;51.074;-1.790;2023-12-22T06:17:53;11.18;;;1.05;;
78406;SDS011;67692;51.074;-1.790;2023-12-22T06:20:20;10.38;;;1.20;;
78406;SDS011;67692;51.074;-1.790;2023-12-22T06:22:48;7.05;;;1.00;;
78406;SDS011;67692;51.074;-1.790;2023-12-22T06:25:15;7.90;;;0.93;;
78406;SDS011;67692;51.074;-1.790;2023-12-22T06:27:41;5.70;;;1.55;;
78406;SDS011;67692;51.074;-1.790;2023-12-22T06:30:08;9.60;;;1.42;;
78406;SDS011;67692;51.074;-1.790;2023-12-22T06:32:35;6.40;;;1.25;;
78406;SDS011;67692;51.074;-1.790;2023-12-22T06:35:05;12.10;;;1.73;;
78406;SDS011;67692;51.074;-1.790;2023-12-22T06:37:32;7.82;;;1.25;;
78406;SDS011;67692;51.074;-1.790;2023-12-22T06:40:00;9.15;;;1.15;;
78406;SDS011;67692;51.074;-1.790;2023-12-22T06:42:27;8.88;;;1.40;;
78406;SDS011;67692;51.074;-1.790;2023-12-22T06:44:54;5.72;;;1.00;;
78406;SDS011;67692;51.074;-1.790;2023-12-22T06:47:20;7.45;;;1.13;;
78406;SDS011;67692;51.074;-1.790;2023-12-22T06:49:47;7.85;;;1.00;;
78406;SDS011;67692;51.074;-1.790;2023-12-22T06:52:14;7.57;;;1.05;;
78406;SDS011;67692;51.074;-1.790;2023-12-22T06:54:41;7.68;;;1.20;;
78406;SDS011;67692;51.074;-1.790;2023-12-22T06:57:10;7.43;;;1.40;;
78406;SDS011;67692;51.074;-1.790;2023-12-22T06:59:37;4.40;;;0.85;;
78406;SDS011;67692;51.074;-1.790;2023-12-22T07:02:05;6.35;;;1.52;;
78406;SDS011;67692;51.074;-1.790;2023-12-22T07:07:29;7.93;;;1.40;;
78406;SDS011;67692;51.074;-1.790;2023-12-22T07:09:56;9.80;;;1.70;;
78406;SDS011;67692;51.074;-1.790;2023-12-22T07:12:24;10.73;;;1.48;;
78406;SDS011;67692;51.074;-1.790;2023-12-22T07:14:50;11.43;;;1.42;;
78406;SDS011;67692;51.074;-1.790;2023-12-22T07:17:17;13.70;;;1.60;;
78406;SDS011;67692;51.074;-1.790;2023-12-22T07:19:43;12.35;;;1.45;;
78406;SDS011;67692;51.074;-1.790;2023-12-22T07:22:10;12.70;;;1.77;;
78406;SDS011;67692;51.074;-1.790;2023-12-22T07:24:37;11.90;;;1.77;;
78406;SDS011;67692;51.074;-1.790;2023-12-22T07:27:04;12.18;;;1.65;;
78406;SDS011;67692;51.074;-1.790;2023-12-22T07:29:32;10.85;;;1.83;;
78406;SDS011;67692;51.074;-1.790;2023-12-22T07:31:58;13.98;;;1.48;;
78406;SDS011;67692;51.074;-1.790;2023-12-22T07:34:25;10.00;;;1.38;;
78406;SDS011;67692;51.074;-1.790;2023-12-22T07:36:52;15.93;;;1.70;;
78406;SDS011;67692;51.074;-1.790;2023-12-22T07:39:18;11.13;;;2.25;;
78406;SDS011;67692;51.074;-1.790;2023-12-22T07:41:45;16.33;;;2.85;;
78406;SDS011;67692;51.074;-1.790;2023-12-22T07:44:13;14.60;;;2.20;;
78406;SDS011;67692;51.074;-1.790;2023-12-22T07:46:41;13.38;;;2.42;;
78406;SDS011;67692;51.074;-1.790;2023-12-22T07:49:08;16.00;;;2.13;;
78406;SDS011;67692;51.074;-1.790;2023-12-22T07:51:35;10.90;;;2.28;;
78406;SDS011;67692;51.074;-1.790;2023-12-22T07:54:01;12.25;;;2.40;;
78406;SDS011;67692;51.074;-1.790;2023-12-22T07:56:28;12.70;;;2.22;;
78406;SDS011;67692;51.074;-1.790;2023-12-22T07:58:55;13.65;;;2.20;;
78406;SDS011;67692;51.074;-1.790;2023-12-22T08:01:21;16.42;;;2.55;;
78406;SDS011;67692;51.074;-1.790;2023-12-22T08:03:50;16.33;;;2.13;;
78406;SDS011;67692;51.074;-1.790;2023-12-22T08:06:17;14.70;;;2.00;;
78406;SDS011;67692;51.074;-1.790;2023-12-22T08:08:43;19.35;;;2.47;;
78406;SDS011;67692;51.074;-1.790;2023-12-22T08:11:10;15.25;;;2.13;;
78406;SDS011;67692;51.074;-1.790;2023-12-22T08:13:37;12.75;;;1.90;;
78406;SDS011;67692;51.074;-1.790;2023-12-22T08:16:03;12.65;;;1.75;;
78406;SDS011;67692;51.074;-1.790;2023-12-22T08:18:30;14.45;;;2.30;;
78406;SDS011;67692;51.074;-1.790;2023-12-22T08:20:58;12.65;;;1.67;;
78406;SDS011;67692;51.074;-1.790;2023-12-22T08:23:25;16.08;;;2.08;;
78406;SDS011;67692;51.074;-1.790;2023-12-22T08:25:51;25.90;;;4.70;;
78406;SDS011;67692;51.074;-1.790;2023-12-22T08:28:18;12.05;;;1.75;;
78406;SDS011;67692;51.074;-1.790;2023-12-22T08:30:45;17.15;;;2.33;;
78406;SDS011;67692;51.074;-1.790;2023-12-22T08:33:11;14.25;;;1.98;;
78406;SDS011;67692;51.074;-1.790;2023-12-22T08:35:39;17.00;;;2.45;;
78406;SDS011;67692;51.074;-1.790;2023-12-22T08:38:07;11.75;;;1.98;;
78406;SDS011;67692;51.074;-1.790;2023-12-22T08:40:33;16.40;;;2.33;;
78406;SDS011;67692;51.074;-1.790;2023-12-22T08:43:00;13.00;;;2.00;;
78406;SDS011;67692;51.074;-1.790;2023-12-22T08:45:28;19.38;;;2.53;;
78406;SDS011;67692;51.074;-1.790;2023-12-22T08:47:55;15.70;;;2.33;;
78406;SDS011;67692;51.074;-1.790;2023-12-22T08:50:21;11.10;;;2.42;;
78406;SDS011;67692;51.074;-1.790;2023-12-22T08:52:48;12.13;;;2.45;;
78406;SDS011;67692;51.074;-1.790;2023-12-22T08:55:16;27.50;;;2.72;;
78406;SDS011;67692;51.074;-1.790;2023-12-22T08:57:42;14.73;;;2.65;;
78406;SDS011;67692;51.074;-1.790;2023-12-22T09:00:10;16.48;;;2.28;;
78406;SDS011;67692;51.074;-1.790;2023-12-22T09:02:37;10.77;;;2.78;;
78406;SDS011;67692;51.074;-1.790;2023-12-22T09:05:04;20.20;;;2.65;;
78406;SDS011;67692;51.074;-1.790;2023-12-22T09:07:32;12.43;;;1.85;;
78406;SDS011;67692;51.074;-1.790;2023-12-22T09:09:59;10.38;;;2.17;;
78406;SDS011;67692;51.074;-1.790;2023-12-22T09:12:27;14.93;;;2.33;;
78406;SDS011;67692;51.074;-1.790;2023-12-22T09:14:53;11.13;;;1.95;;
78406;SDS011;67692;51.074;-1.790;2023-12-22T09:17:20;13.75;;;2.28;;
78406;SDS011;67692;51.074;-1.790;2023-12-22T09:19:47;22.08;;;2.33;;
78406;SDS011;67692;51.074;-1.790;2023-12-22T09:22:13;20.40;;;2.28;;
78406;SDS011;67692;51.074;-1.790;2023-12-22T09:24:40;12.93;;;1.88;;
78406;SDS011;67692;51.074;-1.790;2023-12-22T09:27:06;21.15;;;3.67;;
78406;SDS011;67692;51.074;-1.790;2023-12-22T09:29:36;12.63;;;2.63;;
78406;SDS011;67692;51.074;-1.790;2023-12-22T09:32:02;10.30;;;1.60;;
78406;SDS011;67692;51.074;-1.790;2023-12-22T09:34:30;16.92;;;2.05;;
78406;SDS011;67692;51.074;-1.790;2023-12-22T09:36:56;14.32;;;1.50;;
78406;SDS011;67692;51.074;-1.790;2023-12-22T09:39:23;14.05;;;2.35;;
78406;SDS011;67692;51.074;-1.790;2023-12-22T09:41:50;11.60;;;1.95;;
78406;SDS011;67692;51.074;-1.790;2023-12-22T09:44:17;9.00;;;1.80;;
78406;SDS011;67692;51.074;-1.790;2023-12-22T09:46:47;21.23;;;2.55;;
78406;SDS011;67692;51.074;-1.790;2023-12-22T09:49:15;16.35;;;2.95;;
78406;SDS011;67692;51.074;-1.790;2023-12-22T09:51:43;16.38;;;1.67;;
78406;SDS011;67692;51.074;-1.790;2023-12-22T09:54:10;20.48;;;2.85;;
78406;SDS011;67692;51.074;-1.790;2023-12-22T09:56:38;21.05;;;2.53;;
78406;SDS011;67692;51.074;-1.790;2023-12-22T09:59:08;11.85;;;1.80;;
78406;SDS011;67692;51.074;-1.790;2023-12-22T10:01:37;18.60;;;2.78;;
78406;SDS011;67692;51.074;-1.790;2023-12-22T10:04:07;13.63;;;1.65;;
78406;SDS011;67692;51.074;-1.790;2023-12-22T10:06:35;16.80;;;2.45;;
78406;SDS011;67692;51.074;-1.790;2023-12-22T10:09:01;12.95;;;2.78;;
78406;SDS011;67692;51.074;-1.790;2023-12-22T10:11:30;17.00;;;2.50;;
78406;SDS011;67692;51.074;-1.790;2023-12-22T10:13:59;16.25;;;1.80;;
78406;SDS011;67692;51.074;-1.790;2023-12-22T10:16:28;10.45;;;1.70;;
78406;SDS011;67692;51.074;-1.790;2023-12-22T10:18:54;16.05;;;2.88;;
78406;SDS011;67692;51.074;-1.790;2023-12-22T10:21:22;18.20;;;2.95;;
78406;SDS011;67692;51.074;-1.790;2023-12-22T10:23:49;15.55;;;2.10;;
78406;SDS011;67692;51.074;-1.790;2023-12-22T10:26:16;20.02;;;2.30;;
78406;SDS011;67692;51.074;-1.790;2023-12-22T10:28:42;18.33;;;2.20;;
78406;SDS011;67692;51.074;-1.790;2023-12-22T10:31:09;11.35;;;1.65;;
78406;SDS011;67692;51.074;-1.790;2023-12-22T10:33:36;14.55;;;2.03;;
78406;SDS011;67692;51.074;-1.790;2023-12-22T10:36:03;19.38;;;2.25;;
78406;SDS011;67692;51.074;-1.790;2023-12-22T10:38:33;11.10;;;1.50;;
78406;SDS011;67692;51.074;-1.790;2023-12-22T10:41:01;9.63;;;1.92;;
78406;SDS011;67692;51.074;-1.790;2023-12-22T10:43:27;17.30;;;1.92;;
78406;SDS011;67692;51.074;-1.790;2023-12-22T10:45:54;13.38;;;2.20;;
78406;SDS011;67692;51.074;-1.790;2023-12-22T10:48:22;9.30;;;1.77;;
78406;SDS011;67692;51.074;-1.790;2023-12-22T10:50:48;17.38;;;2.05;;
78406;SDS011;67692;51.074;-1.790;2023-12-22T10:53:15;15.77;;;2.15;;
78406;SDS011;67692;51.074;-1.790;2023-12-22T10:55:43;15.85;;;2.03;;
78406;SDS011;67692;51.074;-1.790;2023-12-22T10:58:15;21.42;;;2.22;;
78406;SDS011;67692;51.074;-1.790;2023-12-22T11:00:43;16.27;;;1.92;;
78406;SDS011;67692;51.074;-1.790;2023-12-22T11:03:12;14.20;;;2.72;;
78406;SDS011;67692;51.074;-1.790;2023-12-22T11:05:44;18.33;;;2.35;;
78406;SDS011;67692;51.074;-1.790;2023-12-22T11:10:41;15.10;;;2.70;;
78406;SDS011;67692;51.074;-1.790;2023-12-22T11:18:05;15.43;;;2.05;;
78406;SDS011;67692;51.074;-1.790;2023-12-22T11:20:34;18.13;;;2.08;;
78406;SDS011;67692;51.074;-1.790;2023-12-22T11:23:02;16.02;;;2.17;;
78406;SDS011;67692;51.074;-1.790;2023-12-22T11:25:30;12.18;;;2.05;;
78406;SDS011;67692;51.074;-1.790;2023-12-22T11:28:00;15.82;;;2.63;;
78406;SDS011;67692;51.074;-1.790;2023-12-22T11:30:36;19.08;;;2.22;;
78406;SDS011;67692;51.074;-1.790;2023-12-22T11:33:04;12.45;;;2.28;;
78406;SDS011;67692;51.074;-1.790;2023-12-22T11:35:31;13.98;;;2.22;;
78406;SDS011;67692;51.074;-1.790;2023-12-22T11:37:57;12.30;;;2.50;;
78406;SDS011;67692;51.074;-1.790;2023-12-22T11:40:27;16.27;;;2.55;;
78406;SDS011;67692;51.074;-1.790;2023-12-22T11:42:53;11.68;;;1.80;;
78406;SDS011;67692;51.074;-1.790;2023-12-22T11:45:21;19.73;;;2.20;;
78406;SDS011;67692;51.074;-1.790;2023-12-22T11:47:50;17.45;;;2.58;;
78406;SDS011;67692;51.074;-1.790;2023-12-22T11:50:28;15.23;;;2.40;;
78406;SDS011;67692;51.074;-1.790;2023-12-22T11:52:55;13.05;;;2.80;;
78406;SDS011;67692;51.074;-1.790;2023-12-22T11:58:34;17.75;;;2.38;;
78406;SDS011;67692;51.074;-1.790;2023-12-22T12:01:06;11.70;;;2.28;;
78406;SDS011;67692;51.074;-1.790;2023-12-22T12:03:37;11.13;;;2.50;;
78406;SDS011;67692;51.074;-1.790;2023-12-22T12:06:10;18.65;;;2.70;;
78406;SDS011;67692;51.074;-1.790;2023-12-22T12:08:40;13.38;;;2.30;;
78406;SDS011;67692;51.074;-1.790;2023-12-22T12:11:07;20.08;;;2.63;;
78406;SDS011;67692;51.074;-1.790;2023-12-22T12:13:34;16.25;;;1.90;;
78406;SDS011;67692;51.074;-1.790;2023-12-22T12:16:05;12.68;;;2.03;;
78406;SDS011;67692;51.074;-1.790;2023-12-22T12:18:33;10.85;;;1.98;;
78406;SDS011;67692;51.074;-1.790;2023-12-22T12:21:02;13.18;;;2.65;;
78406;SDS011;67692;51.074;-1.790;2023-12-22T12:23:29;16.33;;;2.70;;
78406;SDS011;67692;51.074;-1.790;2023-12-22T12:25:56;16.60;;;3.28;;
78406;SDS011;67692;51.074;-1.790;2023-12-22T12:28:24;14.80;;;2.22;;
78406;SDS011;67692;51.074;-1.790;2023-12-22T12:30:56;12.43;;;2.92;;
78406;SDS011;67692;51.074;-1.790;2023-12-22T12:33:24;18.05;;;2.22;;
78406;SDS011;67692;51.074;-1.790;2023-12-22T12:35:52;14.75;;;2.83;;
78406;SDS011;67692;51.074;-1.790;2023-12-22T12:38:23;18.15;;;3.10;;
78406;SDS011;67692;51.074;-1.790;2023-12-22T12:41:02;15.75;;;2.83;;
78406;SDS011;67692;51.074;-1.790;2023-12-22T12:43:30;14.50;;;2.88;;
78406;SDS011;67692;51.074;-1.790;2023-12-22T12:46:02;9.68;;;1.98;;
78406;SDS011;67692;51.074;-1.790;2023-12-22T12:48:29;13.30;;;1.98;;
78406;SDS011;67692;51.074;-1.790;2023-12-22T12:50:55;9.57;;;2.63;;
78406;SDS011;67692;51.074;-1.790;2023-12-22T12:53:28;13.40;;;2.50;;
78406;SDS011;67692;51.074;-1.790;2023-12-22T12:55:56;12.32;;;2.50;;
78406;SDS011;67692;51.074;-1.790;2023-12-22T12:58:26;12.65;;;2.28;;
78406;SDS011;67692;51.074;-1.790;2023-12-22T13:01:01;16.25;;;2.33;;
78406;SDS011;67692;51.074;-1.790;2023-12-22T13:06:05;14.98;;;2.00;;
78406;SDS011;67692;51.074;-1.790;2023-12-22T13:08:33;14.18;;;1.67;;
78406;SDS011;67692;51.074;-1.790;2023-12-22T13:11:00;20.92;;;3.17;;
78406;SDS011;67692;51.074;-1.790;2023-12-22T13:13:28;16.75;;;4.00;;
78406;SDS011;67692;51.074;-1.790;2023-12-22T13:15:55;13.45;;;2.00;;
78406;SDS011;67692;51.074;-1.790;2023-12-22T13:18:21;10.20;;;2.85;;
78406;SDS011;67692;51.074;-1.790;2023-12-22T13:20:48;13.05;;;2.53;;
78406;SDS011;67692;51.074;-1.790;2023-12-22T13:23:16;15.23;;;2.20;;
78406;SDS011;67692;51.074;-1.790;2023-12-22T13:25:45;14.70;;;1.88;;
78406;SDS011;67692;51.074;-1.790;2023-12-22T13:28:12;10.52;;;1.90;;
78406;SDS011;67692;51.074;-1.790;2023-12-22T13:30:39;17.75;;;2.35;;
78406;SDS011;67692;51.074;-1.790;2023-12-22T13:33:06;10.90;;;1.90;;
78406;SDS011;67692;51.074;-1.790;2023-12-22T13:35:33;11.23;;;2.05;;
78406;SDS011;67692;51.074;-1.790;2023-12-22T13:38:01;15.38;;;2.67;;
78406;SDS011;67692;51.074;-1.790;2023-12-22T13:40:28;12.85;;;2.00;;
78406;SDS011;67692;51.074;-1.790;2023-12-22T13:42:56;11.00;;;1.63;;
78406;SDS011;67692;51.074;-1.790;2023-12-22T13:45:24;11.20;;;1.73;;
78406;SDS011;67692;51.074;-1.790;2023-12-22T13:47:51;10.98;;;1.80;;
78406;SDS011;67692;51.074;-1.790;2023-12-22T13:50:17;14.73;;;1.83;;
78406;SDS011;67692;51.074;-1.790;2023-12-22T13:55:16;10.45;;;2.03;;
78406;SDS011;67692;51.074;-1.790;2023-12-22T13:57:43;11.48;;;1.98;;
78406;SDS011;67692;51.074;-1.790;2023-12-22T14:03:03;11.35;;;1.63;;
78406;SDS011;67692;51.074;-1.790;2023-12-22T14:05:29;11.98;;;1.50;;
78406;SDS011;67692;51.074;-1.790;2023-12-22T14:07:56;15.05;;;2.15;;
78406;SDS011;67692;51.074;-1.790;2023-12-22T14:10:23;14.15;;;1.95;;
78406;SDS011;67692;51.074;-1.790;2023-12-22T14:12:49;10.80;;;1.50;;
78406;SDS011;67692;51.074;-1.790;2023-12-22T14:15:16;12.93;;;1.95;;
78406;SDS011;67692;51.074;-1.790;2023-12-22T14:17:45;8.23;;;2.15;;
78406;SDS011;67692;51.074;-1.790;2023-12-22T14:20:11;12.40;;;2.45;;
78406;SDS011;67692;51.074;-1.790;2023-12-22T14:22:38;11.13;;;1.70;;
78406;SDS011;67692;51.074;-1.790;2023-12-22T14:25:05;9.90;;;1.88;;
78406;SDS011;67692;51.074;-1.790;2023-12-22T14:27:32;9.73;;;1.80;;
78406;SDS011;67692;51.074;-1.790;2023-12-22T14:29:59;11.40;;;2.08;;
78406;SDS011;67692;51.074;-1.790;2023-12-22T14:32:26;13.50;;;1.70;;
78406;SDS011;67692;51.074;-1.790;2023-12-22T14:34:56;7.65;;;1.55;;
78406;SDS011;67692;51.074;-1.790;2023-12-22T14:37:22;10.10;;;1.90;;
78406;SDS011;67692;51.074;-1.790;2023-12-22T14:39:49;11.25;;;1.60;;
78406;SDS011;67692;51.074;-1.790;2023-12-22T14:42:16;9.75;;;1.75;;
78406;SDS011;67692;51.074;-1.790;2023-12-22T14:44:42;10.40;;;1.38;;
78406;SDS011;67692;51.074;-1.790;2023-12-22T14:47:09;15.63;;;1.75;;
78406;SDS011;67692;51.074;-1.790;2023-12-22T14:49:35;10.98;;;1.35;;
78406;SDS011;67692;51.074;-1.790;2023-12-22T14:52:04;12.82;;;2.70;;
78406;SDS011;67692;51.074;-1.790;2023-12-22T14:54:30;5.88;;;1.15;;